createdAt,value
2019-05-19T00:02:41.942Z,11.50
2019-05-19T00:05:58.512Z,10.83
2019-05-19T00:09:16.741Z,9.97
2019-05-19T00:12:33.863Z,11.30
2019-05-19T00:15:50.464Z,8.70
2019-05-19T00:19:07.389Z,9.30
2019-05-19T00:22:24.272Z,8.90
2019-05-19T00:25:40.789Z,7.00
2019-05-19T00:28:58.934Z,10.33
2019-05-19T00:32:06.439Z,8.70
2019-05-19T00:35:23.168Z,8.77
2019-05-19T00:38:41.794Z,8.43
2019-05-19T00:42:00.609Z,7.63
2019-05-19T00:45:08.487Z,7.53
2019-05-19T00:48:15.889Z,6.10
2019-05-19T00:51:23.306Z,7.90
2019-05-19T00:54:41.110Z,7.23
2019-05-19T00:57:46.878Z,7.83
2019-05-19T01:01:03.451Z,5.87
2019-05-19T01:04:20.295Z,7.80
2019-05-19T01:07:37.130Z,6.83
2019-05-19T01:10:43.487Z,5.60
2019-05-19T01:13:50.989Z,5.83
2019-05-19T01:16:58.372Z,4.97
2019-05-19T01:20:05.906Z,6.97
2019-05-19T01:23:22.745Z,6.20
2019-05-19T01:26:46.853Z,8.47
2019-05-19T01:30:03.618Z,6.27
2019-05-19T01:33:20.243Z,8.13
2019-05-19T01:36:36.906Z,5.57
2019-05-19T01:39:53.663Z,4.70
2019-05-19T01:43:10.487Z,4.93
2019-05-19T01:46:27.241Z,4.93
2019-05-19T01:49:43.836Z,5.07
2019-05-19T01:52:51.160Z,4.03
2019-05-19T01:56:10.962Z,6.17
2019-05-19T01:59:17.823Z,6.07
2019-05-19T02:02:25.297Z,7.07
2019-05-19T02:05:42.020Z,6.77
2019-05-19T02:08:47.715Z,5.30
2019-05-19T02:12:04.324Z,5.70
2019-05-19T02:15:21.195Z,4.20
2019-05-19T02:18:41.740Z,3.65
2019-05-19T02:21:58.420Z,5.20
2019-05-19T02:25:16.702Z,5.07
2019-05-19T02:28:24.408Z,6.67
2019-05-19T02:31:31.725Z,4.47
2019-05-19T02:34:39.282Z,3.93
2019-05-19T02:37:46.765Z,3.03
2019-05-19T02:40:56.346Z,5.97
2019-05-19T02:44:04.058Z,4.70
2019-05-19T02:47:12.936Z,7.50
2019-05-19T02:50:20.932Z,4.57
2019-05-19T02:53:38.519Z,4.63
2019-05-19T02:56:44.794Z,4.80
2019-05-19T02:59:52.882Z,4.03
2019-05-19T03:03:00.339Z,4.97
2019-05-19T03:06:08.213Z,5.67
2019-05-19T03:09:15.635Z,3.93
2019-05-19T03:12:32.398Z,5.23
2019-05-19T03:15:48.985Z,3.00
2019-05-19T03:19:15.757Z,4.57
2019-05-19T03:22:32.701Z,4.27
2019-05-19T03:25:43.850Z,3.83
2019-05-19T03:28:49.363Z,3.63
2019-05-19T03:32:13.421Z,5.40
2019-05-19T03:35:40.255Z,5.62
2019-05-19T03:39:04.666Z,4.07
2019-05-19T03:42:21.418Z,4.10
2019-05-19T03:45:38.135Z,3.10
2019-05-19T03:48:43.842Z,3.43
2019-05-19T03:52:00.527Z,5.23
2019-05-19T03:55:17.265Z,5.00
2019-05-19T03:58:34.062Z,3.43
2019-05-19T04:01:53.886Z,5.12
2019-05-19T04:05:01.395Z,4.40
2019-05-19T04:08:09.014Z,5.83
2019-05-19T04:11:16.303Z,3.27
2019-05-19T04:14:23.759Z,4.93
2019-05-19T04:17:43.679Z,6.80
2019-05-19T04:21:00.371Z,4.00
2019-05-19T04:24:07.673Z,5.03
2019-05-19T04:27:24.448Z,5.33
2019-05-19T04:30:41.320Z,5.60
2019-05-19T04:33:57.983Z,3.83
2019-05-19T04:37:14.584Z,4.47
2019-05-19T04:40:31.424Z,5.37
2019-05-19T04:43:48.082Z,2.77
2019-05-19T04:47:04.900Z,3.83
2019-05-19T04:50:21.618Z,4.63
2019-05-19T04:53:44.287Z,5.13
2019-05-19T04:57:01.085Z,5.03
2019-05-19T05:00:17.982Z,4.60
2019-05-19T05:03:34.705Z,6.13
2019-05-19T05:06:51.255Z,3.90
2019-05-19T05:10:08.246Z,5.13
2019-05-19T05:13:24.701Z,3.83
2019-05-19T05:16:41.446Z,3.60
2019-05-19T05:19:58.270Z,6.57
2019-05-19T05:23:14.978Z,3.57
2019-05-19T05:26:31.904Z,2.63
2019-05-19T05:29:48.452Z,5.37
2019-05-19T05:33:05.290Z,4.30
2019-05-19T05:36:22.066Z,5.17
2019-05-19T05:39:38.661Z,4.87
2019-05-19T05:42:46.055Z,3.93
2019-05-19T05:45:52.678Z,2.37
2019-05-19T05:49:00.012Z,3.80
2019-05-19T05:52:07.619Z,4.57
2019-05-19T05:55:24.241Z,3.63
2019-05-19T05:58:40.965Z,2.50
2019-05-19T06:01:46.567Z,3.93
2019-05-19T06:05:03.409Z,3.27
2019-05-19T06:08:20.179Z,2.50
2019-05-19T06:11:36.794Z,3.87
2019-05-19T06:14:59.514Z,5.87
2019-05-19T06:18:16.417Z,4.00
2019-05-19T06:21:33.013Z,3.63
2019-05-19T06:24:49.853Z,4.13
2019-05-19T06:28:06.443Z,2.27
2019-05-19T06:31:12.923Z,4.67
2019-05-19T06:34:20.256Z,3.67
2019-05-19T06:37:28.046Z,3.93
2019-05-19T06:40:35.007Z,3.07
2019-05-19T06:43:42.506Z,4.63
2019-05-19T06:46:49.890Z,4.73
2019-05-19T06:50:07.200Z,3.47
2019-05-19T06:53:14.927Z,3.13
2019-05-19T06:56:22.497Z,4.57
2019-05-19T06:59:39.144Z,3.50
2019-05-19T07:03:01.911Z,4.87
2019-05-19T07:06:09.195Z,5.97
2019-05-19T07:09:26.175Z,2.87
2019-05-19T07:12:33.841Z,4.77
2019-05-19T07:15:41.259Z,6.10
2019-05-19T07:18:48.583Z,5.27
2019-05-19T07:21:56.040Z,3.13
2019-05-19T07:25:03.542Z,3.33
2019-05-19T07:28:20.378Z,4.80
2019-05-19T07:31:37.028Z,5.10
2019-05-19T07:34:53.794Z,5.30
2019-05-19T07:38:13.595Z,5.03
2019-05-19T07:41:20.915Z,5.03
2019-05-19T07:44:45.479Z,5.23
2019-05-19T07:47:52.994Z,3.43
2019-05-19T07:51:00.435Z,6.23
2019-05-19T07:54:07.957Z,3.73
2019-05-19T07:57:13.862Z,5.67
2019-05-19T08:00:30.446Z,6.67
2019-05-19T08:03:36.604Z,7.00
2019-05-19T08:06:42.544Z,5.27
2019-05-19T08:09:50.076Z,4.47
2019-05-19T08:12:57.793Z,4.87
2019-05-19T08:16:14.413Z,5.23
2019-05-19T08:19:31.059Z,6.60
2019-05-19T08:22:55.410Z,4.93
2019-05-19T08:26:02.750Z,8.43
2019-05-19T08:29:10.235Z,7.37
2019-05-19T08:32:27.214Z,5.20
2019-05-19T08:35:33.919Z,6.37
2019-05-19T08:38:41.373Z,4.63
2019-05-19T08:42:02.395Z,6.50
2019-05-19T08:45:09.099Z,4.63
2019-05-19T08:48:15.711Z,6.57
2019-05-19T08:51:23.097Z,7.37
2019-05-19T08:54:30.573Z,6.70
2019-05-19T08:57:56.609Z,7.50
2019-05-19T09:01:04.230Z,5.73
2019-05-19T09:04:11.721Z,7.40
2019-05-19T09:07:19.110Z,5.40
2019-05-19T09:10:24.735Z,6.93
2019-05-19T09:13:30.511Z,5.87
2019-05-19T09:16:37.964Z,5.07
2019-05-19T09:19:54.798Z,6.50
2019-05-19T09:23:17.673Z,7.20
2019-05-19T09:26:24.077Z,7.03
2019-05-19T09:29:31.440Z,4.53
2019-05-19T09:32:38.867Z,8.57
2019-05-19T09:35:45.694Z,5.37
2019-05-19T09:38:53.107Z,6.97
2019-05-19T09:42:00.612Z,5.70
2019-05-19T09:45:08.175Z,5.90
2019-05-19T09:48:24.754Z,7.33
2019-05-19T09:51:44.939Z,5.05
2019-05-19T09:54:52.227Z,6.83
2019-05-19T09:57:59.652Z,6.83
2019-05-19T10:01:07.022Z,7.50
2019-05-19T10:04:14.322Z,10.27
2019-05-19T10:07:21.823Z,6.87
2019-05-19T10:11:21.536Z,5.00
2019-05-19T10:14:29.156Z,7.13
2019-05-19T10:17:49.690Z,6.90
2019-05-19T10:21:08.679Z,5.83
2019-05-19T10:24:28.588Z,5.03
2019-05-19T10:27:48.383Z,5.37
2019-05-19T10:31:06.470Z,6.30
2019-05-19T10:34:14.076Z,5.90
2019-05-19T10:37:30.767Z,9.53
2019-05-19T10:40:38.753Z,5.20
2019-05-19T10:43:47.858Z,5.93
2019-05-19T10:46:55.169Z,6.30
2019-05-19T10:50:02.672Z,4.80
2019-05-19T10:53:20.768Z,6.57
2019-05-19T10:56:27.703Z,6.60
2019-05-19T10:59:35.134Z,7.87
2019-05-19T11:02:53.897Z,7.73
2019-05-19T11:06:02.715Z,5.73
2019-05-19T11:09:10.255Z,4.50
2019-05-19T11:12:17.486Z,4.23
2019-05-19T11:15:24.922Z,6.60
2019-05-19T11:18:32.425Z,6.27
2019-05-19T11:21:39.933Z,6.67
2019-05-19T11:24:59.175Z,5.47
2019-05-19T11:28:15.967Z,6.07
2019-05-19T11:31:32.676Z,8.03
2019-05-19T11:34:49.353Z,5.50
2019-05-19T11:37:55.242Z,7.23
2019-05-19T11:41:11.677Z,6.33
2019-05-19T11:44:28.539Z,6.33
2019-05-19T11:47:45.309Z,5.80
2019-05-19T11:50:52.203Z,6.93
2019-05-19T11:53:59.490Z,7.67
2019-05-19T11:57:06.825Z,7.80
2019-05-19T12:00:24.240Z,8.13
2019-05-19T12:03:30.003Z,8.33
2019-05-19T12:07:04.528Z,6.40
2019-05-19T12:10:26.012Z,7.40
2019-05-19T12:13:42.780Z,6.00
2019-05-19T12:17:08.591Z,5.37
2019-05-19T12:20:25.200Z,4.67
2019-05-19T12:23:32.494Z,5.93
2019-05-19T12:26:56.770Z,6.40
2019-05-19T12:30:19.831Z,6.57
2019-05-19T12:33:27.216Z,5.93
2019-05-19T12:36:43.929Z,5.77
2019-05-19T12:39:50.211Z,6.03
2019-05-19T12:42:56.109Z,6.00
2019-05-19T12:46:03.595Z,5.13
2019-05-19T12:49:11.059Z,7.40
2019-05-19T12:52:27.883Z,5.57
2019-05-19T12:55:44.735Z,7.47
2019-05-19T12:59:04.398Z,6.37
2019-05-19T13:02:21.138Z,5.10
2019-05-19T13:05:37.977Z,5.67
2019-05-19T13:12:26.247Z,6.23
2019-05-19T13:15:33.741Z,6.47
2019-05-19T13:18:41.355Z,5.10
2019-05-19T13:22:01.948Z,4.73
2019-05-19T13:25:09.406Z,3.80
2019-05-19T13:28:16.880Z,5.20
2019-05-19T13:31:24.290Z,8.00
2019-05-19T13:34:31.702Z,5.83
2019-05-19T13:37:39.085Z,5.47
2019-05-19T13:40:46.859Z,5.87
2019-05-19T13:43:54.302Z,5.37
2019-05-19T13:47:01.605Z,4.33
2019-05-19T13:50:09.726Z,4.07
2019-05-19T13:53:35.381Z,4.23
2019-05-19T13:57:11.373Z,5.53
2019-05-19T14:00:16.751Z,4.90
2019-05-19T14:03:33.353Z,5.17
2019-05-19T14:06:50.290Z,4.27
2019-05-19T14:09:56.050Z,5.50
2019-05-19T14:13:03.583Z,6.97
2019-05-19T14:16:11.116Z,5.60
2019-05-19T14:19:18.462Z,3.40
2019-05-19T14:22:25.816Z,5.17
2019-05-19T14:25:33.186Z,6.33
2019-05-19T14:28:53.499Z,6.90
2019-05-19T14:32:00.818Z,6.33
2019-05-19T14:35:08.381Z,6.90
2019-05-19T14:38:15.664Z,6.37
2019-05-19T14:41:33.254Z,6.30
2019-05-19T14:44:32.166Z,6.83
2019-05-19T14:47:39.568Z,5.97
2019-05-19T14:50:59.191Z,4.53
2019-05-19T14:54:05.805Z,5.53
2019-05-19T14:57:11.489Z,5.30
2019-05-19T15:00:19.429Z,5.30
2019-05-19T15:03:42.287Z,5.07
2019-05-19T15:07:01.696Z,4.27
2019-05-19T15:10:11.131Z,4.40
2019-05-19T15:13:18.418Z,8.00
2019-05-19T15:16:25.926Z,4.67
2019-05-19T15:19:33.188Z,5.20
2019-05-19T15:22:40.823Z,5.10
2019-05-19T15:25:48.173Z,4.57
2019-05-19T15:29:07.461Z,4.30
2019-05-19T15:32:13.208Z,4.77
2019-05-19T15:35:37.205Z,4.60
2019-05-19T15:38:53.783Z,6.20
2019-05-19T15:42:14.958Z,5.70
2019-05-19T15:45:37.985Z,3.95
2019-05-19T15:48:48.857Z,4.30
2019-05-19T15:52:03.147Z,3.57
2019-05-19T15:55:06.217Z,3.50
2019-05-19T15:58:16.665Z,7.37
2019-05-19T16:01:23.066Z,4.70
2019-05-19T16:04:30.674Z,4.27
2019-05-19T16:07:50.336Z,4.30
2019-05-19T16:11:07.334Z,3.87
2019-05-19T16:14:26.970Z,5.53
2019-05-19T16:17:43.846Z,5.53
2019-05-19T16:21:00.524Z,6.07
2019-05-19T16:24:17.307Z,3.77
2019-05-19T16:27:34.046Z,4.03
2019-05-19T16:30:54.400Z,4.33
2019-05-19T16:34:01.860Z,5.07
2019-05-19T16:37:09.299Z,3.70
2019-05-19T16:40:16.885Z,6.23
2019-05-19T16:43:24.247Z,5.17
2019-05-19T16:46:49.427Z,3.43
2019-05-19T16:50:12.642Z,3.73
2019-05-19T16:53:19.992Z,4.87
2019-05-19T16:56:27.455Z,4.97
2019-05-19T16:59:35.051Z,4.20
2019-05-19T17:02:42.474Z,4.03
2019-05-19T17:05:50.005Z,5.27
2019-05-19T17:09:41.480Z,4.85
2019-05-19T17:12:57.284Z,6.27
2019-05-19T17:16:04.783Z,4.50
2019-05-19T17:19:12.131Z,5.23
2019-05-19T17:22:19.577Z,4.83
2019-05-19T17:25:26.827Z,4.33
2019-05-19T17:28:34.082Z,4.53
2019-05-19T17:31:41.793Z,4.40
2019-05-19T17:35:06.796Z,3.70
2019-05-19T17:38:14.154Z,4.90
2019-05-19T17:41:21.614Z,4.87
2019-05-19T17:44:28.986Z,6.03
2019-05-19T17:47:36.758Z,4.40
2019-05-19T17:51:12.064Z,5.93
2019-05-19T17:54:21.808Z,4.63
2019-05-19T17:57:42.295Z,4.13
2019-05-19T18:00:49.715Z,5.23
2019-05-19T18:03:56.505Z,4.97
2019-05-19T18:07:02.776Z,4.10
2019-05-19T18:10:10.257Z,3.97
2019-05-19T18:13:34.036Z,5.27
2019-05-19T18:16:48.002Z,3.57
2019-05-19T18:19:55.535Z,5.07
2019-05-19T18:23:02.416Z,2.77
2019-05-19T18:26:09.890Z,5.23
2019-05-19T18:29:30.570Z,5.50
2019-05-19T18:32:26.671Z,3.47
2019-05-19T18:35:34.288Z,3.50
2019-05-19T18:38:41.706Z,4.10
2019-05-19T18:41:47.931Z,4.37
2019-05-19T18:45:10.547Z,4.60
2019-05-19T18:48:33.245Z,3.60
2019-05-19T18:51:51.041Z,4.60
2019-05-19T18:54:59.483Z,5.50
2019-05-19T18:58:06.924Z,4.87
2019-05-19T19:01:25.174Z,4.53
2019-05-19T19:04:42.216Z,4.80
2019-05-19T19:08:09.080Z,4.47
2019-05-19T19:11:16.643Z,5.63
2019-05-19T19:14:33.541Z,5.53
2019-05-19T19:17:52.270Z,7.40
2019-05-19T19:21:12.040Z,4.70
2019-05-19T19:24:32.334Z,5.30
2019-05-19T19:27:39.742Z,6.13
2019-05-19T19:30:47.219Z,6.30
2019-05-19T19:33:54.630Z,7.97
2019-05-19T19:37:01.956Z,4.53
2019-05-19T19:40:09.571Z,8.00
2019-05-19T19:43:34.597Z,7.93
2019-05-19T19:46:53.605Z,7.80
2019-05-19T19:49:58.844Z,7.00
2019-05-19T19:53:06.289Z,7.90
2019-05-19T19:56:13.595Z,8.00
2019-05-19T19:59:21.334Z,6.90
2019-05-19T20:02:28.621Z,7.13
2019-05-19T20:05:36.040Z,9.13
2019-05-19T20:08:53.109Z,8.17
2019-05-19T20:12:00.657Z,8.40
2019-05-19T20:15:08.083Z,12.80
2019-05-19T20:18:15.425Z,8.53
2019-05-19T20:21:21.805Z,8.67
2019-05-19T20:24:28.496Z,10.23
2019-05-19T20:27:35.920Z,7.87
2019-05-19T20:30:52.911Z,8.10
2019-05-19T20:34:00.675Z,8.17
2019-05-19T20:37:08.091Z,9.23
2019-05-19T20:40:15.723Z,8.23
2019-05-19T20:43:22.984Z,7.47
2019-05-19T20:46:30.267Z,7.53
2019-05-19T20:49:49.483Z,7.80
2019-05-19T20:52:56.790Z,9.43
2019-05-19T20:56:13.560Z,8.00
2019-05-19T20:59:36.513Z,6.73
2019-05-19T21:02:53.120Z,6.80
2019-05-19T21:06:12.989Z,7.20
2019-05-19T21:09:19.189Z,8.63
2019-05-19T21:12:26.617Z,8.73
2019-05-19T21:15:34.189Z,6.97
2019-05-19T21:18:41.087Z,9.40
2019-05-19T21:21:48.400Z,10.07
2019-05-19T21:24:54.112Z,11.57
2019-05-19T21:27:59.961Z,9.03
2019-05-19T21:31:07.384Z,11.00
2019-05-19T21:34:24.173Z,10.17
2019-05-19T21:37:46.784Z,9.87
2019-05-19T21:41:03.695Z,10.70
2019-05-19T21:44:20.291Z,9.13
2019-05-19T21:47:39.496Z,13.07
2019-05-19T21:50:56.228Z,12.07
2019-05-19T21:54:12.975Z,12.23
2019-05-19T21:57:29.540Z,10.53
2019-05-19T22:00:46.608Z,10.93
2019-05-19T22:03:53.230Z,12.57
2019-05-19T22:07:25.622Z,16.27
2019-05-19T22:10:33.363Z,9.60
2019-05-19T22:13:40.666Z,13.17
2019-05-19T22:16:57.446Z,9.03
2019-05-19T22:20:14.105Z,8.27
2019-05-19T22:23:31.164Z,9.17
2019-05-19T22:26:38.693Z,9.97
2019-05-19T22:29:46.210Z,7.10
2019-05-19T22:32:53.754Z,7.80
2019-05-19T22:36:01.178Z,9.80
2019-05-19T22:39:26.508Z,9.23
2019-05-19T22:42:45.642Z,9.10
2019-05-19T22:45:53.250Z,7.60
2019-05-19T22:49:00.035Z,14.00
2019-05-19T22:52:07.368Z,8.87
2019-05-19T22:55:14.828Z,7.83
2019-05-19T22:58:22.347Z,10.53
2019-05-19T23:01:29.768Z,10.97
2019-05-19T23:04:37.068Z,8.87
2019-05-19T23:07:57.733Z,7.17
2019-05-19T23:11:05.261Z,9.40
2019-05-19T23:14:12.810Z,9.10
2019-05-19T23:17:29.304Z,10.40
2019-05-19T23:20:46.272Z,7.47
2019-05-19T23:24:03.085Z,7.60
2019-05-19T23:27:19.883Z,8.47
2019-05-19T23:30:36.532Z,6.23
2019-05-19T23:33:53.264Z,5.60
2019-05-19T23:37:09.983Z,5.43
2019-05-19T23:40:18.315Z,6.80
2019-05-19T23:43:25.722Z,6.97
2019-05-19T23:46:33.104Z,7.37
2019-05-19T23:49:55.892Z,6.63
2019-05-19T23:53:14.820Z,6.43
2019-05-19T23:56:22.111Z,7.77
2019-05-19T23:59:28.805Z,4.20
